Hillgrove, Washington
Current Conditions -  °F | °C
As of 9:53 PM on Wednesday 17 Dec 2014 (Local Time) from KSHN Reporting Station
Light Rain Light Rain  
Wind Chill: 44°   Ceiling: 400
Heat Index: 44°   Visibility: 2mi
Dew Point: 42°   Wind: 0mph
Humidity: 93%   Direction: NA
Pressure: 29.89"   Gusts: NA
Location:  47.0427°N, 123.269°W
Report Text: KSHN 180553Z AUTO 00000KT 2SM -RA BR BKN004 OVC022 07/06 A2989 RMK AO2 SLP126 P0003 60008 T00670056 10072 20067 53005
Loading
Personal Weather Stations






























Interactive Weather Map New forecast layout! Learn more

10-Day Weather Forecast

Advertisements
Track Severe Weather on mobile